createdAt,value
2023-03-02T00:00:36.795Z,102074.19
2023-03-02T00:03:04.607Z,102072.75
2023-03-02T00:05:31.628Z,102078.84
2023-03-02T00:07:58.951Z,102077.28
2023-03-02T00:10:25.613Z,102067.47
2023-03-02T00:12:52.236Z,102066.03
2023-03-02T00:15:18.586Z,102066.56
2023-03-02T00:17:44.918Z,102066.31
2023-03-02T00:20:12.003Z,102060.06
2023-03-02T00:22:39.372Z,102056.59
2023-03-02T00:25:06.026Z,102054.09
2023-03-02T00:27:32.316Z,102047.34
2023-03-02T00:29:58.674Z,102049.63
2023-03-02T00:32:25.501Z,102041.41
2023-03-02T00:34:52.258Z,102043.09
2023-03-02T00:37:18.859Z,102035.72
2023-03-02T00:39:45.226Z,102036.50
2023-03-02T00:42:11.546Z,102046.00
2023-03-02T00:44:37.898Z,102043.31
2023-03-02T00:47:04.266Z,102048.00
2023-03-02T00:49:30.629Z,102043.22
2023-03-02T00:51:57.035Z,102034.06
2023-03-02T00:54:23.562Z,102036.91
2023-03-02T00:56:49.851Z,102035.97
2023-03-02T00:59:28.409Z,102036.41
2023-03-02T01:01:57.735Z,102036.34
2023-03-02T01:04:25.382Z,102033.56
2023-03-02T01:06:51.738Z,102033.56
2023-03-02T01:09:18.073Z,102030.88
2023-03-02T01:11:44.420Z,102031.75
2023-03-02T01:14:10.735Z,102022.78
2023-03-02T01:16:37.409Z,102033.13
2023-03-02T01:19:03.818Z,102031.81
2023-03-02T01:21:30.299Z,102029.50
2023-03-02T01:23:56.583Z,102030.06
2023-03-02T01:26:23.004Z,102026.69
2023-03-02T01:28:50.130Z,102017.66
2023-03-02T01:31:17.296Z,102012.69
2023-03-02T01:33:43.633Z,102007.22
2023-03-02T01:36:09.989Z,102007.06
2023-03-02T01:38:36.277Z,102002.09
2023-03-02T01:41:02.686Z,102002.34
2023-03-02T01:43:29.344Z,102003.91
2023-03-02T01:45:57.627Z,101999.47
2023-03-02T01:48:35.123Z,102002.28
2023-03-02T01:51:02.368Z,101993.16
2023-03-02T01:53:31.247Z,101997.31
2023-03-02T01:55:59.143Z,101994.38
2023-03-02T01:58:25.745Z,101990.84
2023-03-02T02:00:53.026Z,101988.28
2023-03-02T02:03:24.940Z,101982.88
2023-03-02T02:05:59.568Z,101981.84
2023-03-02T02:08:26.016Z,101982.06
2023-03-02T02:10:53.303Z,101976.22
2023-03-02T02:13:19.616Z,101976.50
2023-03-02T02:15:46.199Z,101982.88
2023-03-02T02:18:12.485Z,101972.44
2023-03-02T02:20:46.834Z,101965.50
2023-03-02T02:23:26.487Z,101966.44
2023-03-02T02:25:55.897Z,101969.47
2023-03-02T02:28:27.818Z,101962.47
2023-03-02T02:31:04.484Z,101956.59
2023-03-02T02:33:32.196Z,101960.66
2023-03-02T02:36:03.297Z,101969.50
2023-03-02T02:38:30.474Z,101972.72
2023-03-02T02:41:01.394Z,101961.84
2023-03-02T02:43:28.737Z,101965.31
2023-03-02T02:45:56.997Z,101962.97
2023-03-02T02:48:24.506Z,101966.03
2023-03-02T02:51:00.293Z,101955.09
2023-03-02T02:53:29.546Z,101954.06
2023-03-02T02:55:57.680Z,101956.88
2023-03-02T02:58:29.883Z,101951.53
2023-03-02T03:00:56.296Z,101959.50
2023-03-02T03:03:30.876Z,101956.59
2023-03-02T03:06:02.359Z,101950.94
2023-03-02T03:08:43.879Z,101954.34
2023-03-02T03:11:11.588Z,101943.97
2023-03-02T03:13:38.673Z,101951.22
2023-03-02T03:16:05.809Z,101946.00
2023-03-02T03:18:32.100Z,101950.97
2023-03-02T03:20:58.397Z,101952.34
2023-03-02T03:23:24.725Z,101956.97
2023-03-02T03:25:51.037Z,101958.81
2023-03-02T03:28:18.093Z,101961.88
2023-03-02T03:30:44.923Z,101958.63
2023-03-02T03:33:14.265Z,101960.84
2023-03-02T03:35:40.600Z,101959.59
2023-03-02T03:38:08.012Z,101952.28
2023-03-02T03:40:34.492Z,101958.56
2023-03-02T03:43:01.379Z,101954.34
2023-03-02T03:45:30.275Z,101954.91
2023-03-02T03:47:56.907Z,101955.13
2023-03-02T03:50:23.478Z,101956.63
2023-03-02T03:52:49.940Z,101948.88
2023-03-02T03:55:16.921Z,101960.63
2023-03-02T03:57:43.231Z,101961.75
2023-03-02T04:00:11.225Z,101957.22
2023-03-02T04:02:37.741Z,101959.91
2023-03-02T04:05:07.513Z,101964.09
2023-03-02T04:07:33.993Z,101964.97
2023-03-02T04:10:06.091Z,101964.16
2023-03-02T04:12:33.704Z,101964.50
2023-03-02T04:15:00.007Z,101961.25
2023-03-02T04:17:26.648Z,101956.34
2023-03-02T04:19:53.157Z,101959.28
2023-03-02T04:22:20.004Z,101958.28
2023-03-02T04:24:46.770Z,101961.53
2023-03-02T04:27:13.532Z,101966.13
2023-03-02T04:29:40.504Z,101969.16
2023-03-02T04:32:07.561Z,101978.09
2023-03-02T04:34:34.174Z,101985.16
2023-03-02T04:37:00.876Z,101970.81
2023-03-02T04:39:27.266Z,101968.75
2023-03-02T04:41:54.781Z,101971.25
2023-03-02T04:44:21.160Z,101968.44
2023-03-02T04:46:47.983Z,101969.34
2023-03-02T04:49:14.928Z,101973.13
2023-03-02T04:51:42.632Z,101967.63
2023-03-02T04:54:13.234Z,101962.78
2023-03-02T04:56:39.556Z,101970.63
2023-03-02T04:59:05.887Z,101966.13
2023-03-02T05:01:32.372Z,101966.78
2023-03-02T05:03:59.286Z,101962.34
2023-03-02T05:06:26.563Z,101965.31
2023-03-02T05:08:53.525Z,101974.34
2023-03-02T05:11:23.216Z,101970.88
2023-03-02T05:13:50.561Z,101974.59
2023-03-02T05:16:16.936Z,101968.63
2023-03-02T05:18:43.424Z,101965.38
2023-03-02T05:21:10.204Z,101967.88
2023-03-02T05:23:36.540Z,101967.66
2023-03-02T05:26:02.912Z,101973.66
2023-03-02T05:28:29.259Z,101969.00
2023-03-02T05:30:55.605Z,101962.78
2023-03-02T05:33:21.983Z,101968.13
2023-03-02T05:35:48.481Z,101971.81
2023-03-02T05:38:15.049Z,101976.16
2023-03-02T05:40:44.561Z,101969.84
2023-03-02T05:43:14.644Z,101974.50
2023-03-02T05:45:40.953Z,101976.19
2023-03-02T05:48:07.616Z,101972.13
2023-03-02T05:50:34.263Z,101975.91
2023-03-02T05:53:02.389Z,101974.69
2023-03-02T05:55:28.768Z,101969.75
2023-03-02T05:57:55.167Z,101964.84
2023-03-02T06:00:21.648Z,101980.84
2023-03-02T06:02:48.019Z,101978.66
2023-03-02T06:05:16.512Z,101976.91
2023-03-02T06:07:42.953Z,101976.63
2023-03-02T06:10:10.326Z,101979.41
2023-03-02T06:12:36.712Z,101975.94
2023-03-02T06:15:04.249Z,101972.19
2023-03-02T06:17:30.659Z,101970.75
2023-03-02T06:19:57.073Z,101976.66
2023-03-02T06:22:23.391Z,101977.88
2023-03-02T06:24:49.736Z,101983.75
2023-03-02T06:27:16.018Z,101981.84
2023-03-02T06:29:42.332Z,101983.53
2023-03-02T06:32:10.419Z,101976.47
2023-03-02T06:34:36.889Z,101992.13
2023-03-02T06:37:03.260Z,101982.88
2023-03-02T06:39:30.100Z,101986.69
2023-03-02T06:41:56.507Z,101986.28
2023-03-02T06:44:22.856Z,101987.63
2023-03-02T06:46:49.246Z,101989.94
2023-03-02T06:49:15.600Z,101992.69
2023-03-02T06:51:41.864Z,101986.34
2023-03-02T06:54:08.284Z,101988.81
2023-03-02T06:56:34.957Z,101988.75
2023-03-02T06:59:01.457Z,101981.84
2023-03-02T07:01:32.726Z,101993.66
2023-03-02T07:03:59.443Z,101999.72
2023-03-02T07:06:25.748Z,101997.75
2023-03-02T07:08:52.138Z,102006.66
2023-03-02T07:11:18.445Z,102000.63
2023-03-02T07:13:44.740Z,102006.75
2023-03-02T07:16:11.879Z,101996.31
2023-03-02T07:18:38.660Z,101992.50
2023-03-02T07:21:05.156Z,102002.03
2023-03-02T07:23:31.528Z,101993.56
2023-03-02T07:25:57.887Z,102003.41
2023-03-02T07:28:25.222Z,101998.47
2023-03-02T07:30:53.285Z,102003.25
2023-03-02T07:33:20.404Z,102005.34
2023-03-02T07:35:46.738Z,102000.22
2023-03-02T07:38:13.182Z,101992.44
2023-03-02T07:40:42.895Z,101993.28
2023-03-02T07:43:09.824Z,101988.53
2023-03-02T07:45:37.250Z,101988.56
2023-03-02T07:48:03.794Z,101992.00
2023-03-02T07:50:30.439Z,102000.16
2023-03-02T07:52:58.594Z,101992.31
2023-03-02T07:55:26.210Z,101992.38
2023-03-02T07:57:52.591Z,101986.09
2023-03-02T08:00:19.253Z,101980.97
2023-03-02T08:02:45.652Z,101991.97
2023-03-02T08:05:12.395Z,101992.78
2023-03-02T08:07:39.832Z,101997.34
2023-03-02T08:10:06.693Z,101988.63
2023-03-02T08:12:33.009Z,101985.28
2023-03-02T08:14:59.355Z,101989.81
2023-03-02T08:17:25.667Z,101995.69
2023-03-02T08:19:52.005Z,101988.38
2023-03-02T08:22:18.323Z,101984.22
2023-03-02T08:24:44.635Z,101981.53
2023-03-02T08:27:15.297Z,101983.97
2023-03-02T08:29:41.644Z,101981.84
2023-03-02T08:32:08.115Z,101983.53
2023-03-02T08:34:34.440Z,101986.38
2023-03-02T08:37:00.759Z,101977.28
2023-03-02T08:39:30.181Z,101976.78
2023-03-02T08:41:56.765Z,101975.03
2023-03-02T08:44:23.251Z,101986.13
2023-03-02T08:46:49.834Z,101978.53
2023-03-02T08:49:16.436Z,101976.22
2023-03-02T08:51:42.859Z,101970.91
2023-03-02T08:54:09.914Z,101970.53
2023-03-02T08:56:37.213Z,101965.03
2023-03-02T08:59:09.583Z,101970.41
2023-03-02T09:01:37.449Z,101958.06
2023-03-02T09:04:04.930Z,101959.47
2023-03-02T09:06:33.874Z,101949.22
2023-03-02T09:09:00.186Z,101959.81
2023-03-02T09:11:27.128Z,101960.53
2023-03-02T09:13:54.520Z,101951.22
2023-03-02T09:16:20.982Z,101957.38
2023-03-02T09:18:47.744Z,101953.63
2023-03-02T09:21:14.118Z,101953.94
2023-03-02T09:23:40.695Z,101966.06
2023-03-02T09:26:07.057Z,101961.38
2023-03-02T09:28:33.667Z,101970.88
2023-03-02T09:31:01.616Z,101972.34
2023-03-02T09:33:29.103Z,101967.09
2023-03-02T09:35:55.592Z,101974.06
2023-03-02T09:38:22.131Z,101960.91
2023-03-02T09:41:04.777Z,101970.19
2023-03-02T09:43:38.934Z,101968.66
2023-03-02T09:46:14.270Z,101974.13
2023-03-02T09:48:45.820Z,101970.34
2023-03-02T09:51:20.822Z,101971.28
2023-03-02T09:53:53.034Z,101969.88
2023-03-02T09:56:20.032Z,101968.47
2023-03-02T09:59:05.016Z,101970.22
2023-03-02T10:01:39.165Z,101960.97
2023-03-02T10:04:11.209Z,101963.78
2023-03-02T10:06:37.593Z,101963.91
2023-03-02T10:09:03.892Z,101965.06
2023-03-02T10:11:30.302Z,101966.63
2023-03-02T10:14:02.587Z,101963.50
2023-03-02T10:16:38.444Z,101971.63
2023-03-02T10:19:07.979Z,101964.47
2023-03-02T10:21:46.001Z,101964.44
2023-03-02T10:24:16.477Z,101967.72
2023-03-02T10:26:44.319Z,101968.72
2023-03-02T10:29:10.648Z,101969.94
2023-03-02T10:31:38.901Z,101970.00
2023-03-02T10:34:05.254Z,101963.47
2023-03-02T10:36:37.468Z,101969.94
2023-03-02T10:39:06.836Z,101963.47
2023-03-02T10:41:36.105Z,101961.78
2023-03-02T10:44:05.685Z,101964.88
2023-03-02T10:46:42.084Z,101962.81
2023-03-02T10:49:25.346Z,101962.25
2023-03-02T10:51:56.023Z,101966.84
2023-03-02T10:54:22.324Z,101964.59
2023-03-02T10:56:50.693Z,101959.41
2023-03-02T10:59:28.887Z,101966.56
2023-03-02T11:02:15.128Z,101963.88
2023-03-02T11:04:41.706Z,101966.84
2023-03-02T11:07:15.348Z,101966.06
2023-03-02T11:09:41.657Z,101963.66
2023-03-02T11:12:17.725Z,101963.91
2023-03-02T11:14:44.113Z,101956.03
2023-03-02T11:17:31.358Z,101961.75
2023-03-02T11:19:57.770Z,101959.84
2023-03-02T11:22:40.937Z,101955.78
2023-03-02T11:25:12.516Z,101966.06
2023-03-02T11:27:41.393Z,101953.91
2023-03-02T11:30:07.886Z,101954.41
2023-03-02T11:32:36.785Z,101959.56
2023-03-02T11:35:03.133Z,101954.16
2023-03-02T11:37:49.665Z,101944.44
2023-03-02T11:40:26.344Z,101946.59
2023-03-02T11:42:54.758Z,101939.84
2023-03-02T11:45:27.211Z,101938.75
2023-03-02T11:48:04.129Z,101928.97
2023-03-02T11:50:32.651Z,101942.25
2023-03-02T11:53:01.307Z,101930.91
2023-03-02T11:55:29.084Z,101933.34
2023-03-02T11:57:57.774Z,101928.94
2023-03-02T12:00:26.891Z,101929.53
2023-03-02T12:03:19.616Z,101921.66
2023-03-02T12:05:58.301Z,101931.41
2023-03-02T12:08:24.668Z,101924.66
2023-03-02T12:10:57.222Z,101931.97
2023-03-02T12:13:28.728Z,101932.22
2023-03-02T12:15:57.988Z,101926.81
2023-03-02T12:18:24.756Z,101929.78
2023-03-02T12:21:03.373Z,101920.88
2023-03-02T12:23:30.476Z,101920.34
2023-03-02T12:26:02.712Z,101918.16
2023-03-02T12:28:37.278Z,101913.53
2023-03-02T12:31:13.664Z,101905.72
2023-03-02T12:33:48.084Z,101913.28
2023-03-02T12:36:34.882Z,101905.41
2023-03-02T12:39:10.278Z,101908.13
2023-03-02T12:41:56.813Z,101904.06
2023-03-02T12:44:47.624Z,101908.94
2023-03-02T12:47:26.086Z,101903.53
2023-03-02T12:49:52.623Z,101899.44
2023-03-02T12:52:23.880Z,101900.56
2023-03-02T12:54:59.228Z,101898.38
2023-03-02T12:57:25.514Z,101901.63
2023-03-02T12:59:53.371Z,101897.84
2023-03-02T13:02:21.421Z,101897.31
2023-03-02T13:05:02.430Z,101892.41
2023-03-02T13:07:36.300Z,101891.34
2023-03-02T13:10:04.450Z,101887.25
2023-03-02T13:12:31.032Z,101884.59
2023-03-02T13:14:58.800Z,101885.13
2023-03-02T13:17:30.753Z,101892.41
2023-03-02T13:19:58.487Z,101884.00
2023-03-02T13:22:25.272Z,101882.69
2023-03-02T13:24:56.275Z,101878.09
2023-03-02T13:27:23.319Z,101887.28
2023-03-02T13:29:50.088Z,101881.34
2023-03-02T13:32:19.632Z,101890.28
2023-03-02T13:34:50.853Z,101881.63
2023-03-02T13:37:19.632Z,101887.56
2023-03-02T13:39:54.173Z,101888.38
2023-03-02T13:42:25.614Z,101881.34
2023-03-02T13:44:52.048Z,101879.97
2023-03-02T13:47:23.169Z,101879.69
2023-03-02T13:49:49.560Z,101875.94
2023-03-02T13:52:15.893Z,101875.88
2023-03-02T13:54:43.924Z,101864.56
2023-03-02T13:57:18.904Z,101862.41
2023-03-02T13:59:45.322Z,101864.81
2023-03-02T14:02:19.862Z,101850.22
2023-03-02T14:04:46.291Z,101859.94
2023-03-02T14:07:12.648Z,101848.84
2023-03-02T14:09:38.962Z,101846.69
2023-03-02T14:12:05.608Z,101851.28
2023-03-02T14:14:35.153Z,101853.97
2023-03-02T14:17:01.546Z,101848.03
2023-03-02T14:19:27.944Z,101852.06
2023-03-02T14:21:54.331Z,101843.94
2023-03-02T14:24:20.736Z,101845.84
2023-03-02T14:26:48.806Z,101834.81
2023-03-02T14:29:29.280Z,101840.16
2023-03-02T14:31:56.700Z,101838.00
2023-03-02T14:34:23.521Z,101834.25
2023-03-02T14:36:51.899Z,101838.56
2023-03-02T14:39:31.009Z,101827.75
2023-03-02T14:41:57.555Z,101829.34
2023-03-02T14:44:24.021Z,101828.03
2023-03-02T14:46:50.629Z,101822.59
2023-03-02T14:49:17.049Z,101817.50
2023-03-02T14:51:44.973Z,101816.13
2023-03-02T14:54:14.757Z,101818.84
2023-03-02T14:56:42.696Z,101808.00
2023-03-02T14:59:12.227Z,101799.34
2023-03-02T15:01:39.418Z,101801.78
2023-03-02T15:04:05.820Z,101802.84
2023-03-02T15:06:34.871Z,101802.28
2023-03-02T15:09:01.542Z,101789.31
2023-03-02T15:11:28.022Z,101785.81
2023-03-02T15:13:54.604Z,101793.13
2023-03-02T15:16:21.627Z,101786.63
2023-03-02T15:18:52.004Z,101785.00
2023-03-02T15:21:20.019Z,101779.59
2023-03-02T15:23:46.666Z,101776.31
2023-03-02T15:26:13.698Z,101772.28
2023-03-02T15:28:40.414Z,101776.91
2023-03-02T15:31:10.462Z,101774.16
2023-03-02T15:33:37.229Z,101774.44
2023-03-02T15:36:06.198Z,101776.09
2023-03-02T15:38:33.528Z,101763.34
2023-03-02T15:41:03.821Z,101770.09
2023-03-02T15:43:30.104Z,101768.22
2023-03-02T15:45:56.838Z,101771.72
2023-03-02T15:48:23.126Z,101773.63
2023-03-02T15:51:03.009Z,101762.81
2023-03-02T15:53:29.799Z,101761.47
2023-03-02T15:55:56.390Z,101765.78
2023-03-02T15:58:23.200Z,101774.44
2023-03-02T16:00:50.002Z,101768.75
2023-03-02T16:03:16.817Z,101770.13
2023-03-02T16:05:43.231Z,101769.31
2023-03-02T16:08:09.584Z,101774.69
2023-03-02T16:10:36.731Z,101769.03
2023-03-02T16:13:04.038Z,101768.16
2023-03-02T16:15:30.397Z,101760.94
2023-03-02T16:17:56.722Z,101764.66
2023-03-02T16:20:23.157Z,101770.06
2023-03-02T16:22:49.447Z,101765.50
2023-03-02T16:25:15.848Z,101753.63
2023-03-02T16:27:47.032Z,101763.53
2023-03-02T16:30:15.519Z,101765.72
2023-03-02T16:32:42.023Z,101763.59
2023-03-02T16:35:09.000Z,101759.25
2023-03-02T16:37:35.437Z,101772.53
2023-03-02T16:40:01.813Z,101766.78
2023-03-02T16:42:30.292Z,101773.59
2023-03-02T16:44:56.650Z,101769.81
2023-03-02T16:47:23.007Z,101769.75
2023-03-02T16:49:49.415Z,101766.84
2023-03-02T16:52:17.586Z,101772.53
2023-03-02T16:54:43.991Z,101771.47
2023-03-02T16:57:10.445Z,101774.44
2023-03-02T16:59:36.940Z,101768.19
2023-03-02T17:02:03.354Z,101771.41
2023-03-02T17:04:29.876Z,101774.44
2023-03-02T17:07:00.724Z,101773.59
2023-03-02T17:09:27.907Z,101777.41
2023-03-02T17:11:54.269Z,101774.16
2023-03-02T17:14:20.609Z,101781.13
2023-03-02T17:16:46.918Z,101781.16
2023-03-02T17:19:13.214Z,101787.09
2023-03-02T17:21:39.568Z,101790.84
2023-03-02T17:24:06.001Z,101788.72
2023-03-02T17:26:32.402Z,101794.50
2023-03-02T17:28:58.727Z,101799.44
2023-03-02T17:31:25.120Z,101796.03
2023-03-02T17:33:51.601Z,101801.44
2023-03-02T17:36:17.931Z,101805.25
2023-03-02T17:38:44.369Z,101800.22
2023-03-02T17:41:11.654Z,101804.75
2023-03-02T17:43:38.885Z,101817.22
2023-03-02T17:46:16.751Z,101799.63
2023-03-02T17:48:43.113Z,101802.06
2023-03-02T17:51:11.612Z,101803.09
2023-03-02T17:53:38.329Z,101804.50
2023-03-02T17:56:04.749Z,101808.03
2023-03-02T17:58:44.330Z,101812.31
2023-03-02T18:01:11.565Z,101812.94
2023-03-02T18:03:38.759Z,101817.56
2023-03-02T18:06:05.458Z,101802.84
2023-03-02T18:08:33.094Z,101804.34
2023-03-02T18:10:59.951Z,101803.09
2023-03-02T18:13:26.293Z,101801.56
2023-03-02T18:15:52.622Z,101800.94
2023-03-02T18:18:18.922Z,101793.72
2023-03-02T18:20:45.321Z,101802.28
2023-03-02T18:23:12.375Z,101803.03
2023-03-02T18:25:38.761Z,101800.63
2023-03-02T18:28:05.236Z,101797.41
2023-03-02T18:30:31.565Z,101795.00
2023-03-02T18:32:58.026Z,101791.50
2023-03-02T18:35:24.417Z,101799.41
2023-03-02T18:37:50.807Z,101801.00
2023-03-02T18:40:17.234Z,101798.03
2023-03-02T18:42:43.690Z,101806.59
2023-03-02T18:45:10.353Z,101808.81
2023-03-02T18:47:36.806Z,101804.78
2023-03-02T18:50:03.948Z,101810.47
2023-03-02T18:52:30.262Z,101812.09
2023-03-02T18:54:57.759Z,101806.38
2023-03-02T18:57:25.289Z,101806.19
2023-03-02T18:59:51.661Z,101801.50
2023-03-02T19:02:18.046Z,101806.44
2023-03-02T19:04:44.383Z,101803.16
2023-03-02T19:07:10.910Z,101794.22
2023-03-02T19:09:37.204Z,101790.03
2023-03-02T19:12:04.512Z,101790.00
2023-03-02T19:14:30.895Z,101789.69
2023-03-02T19:16:57.263Z,101792.44
2023-03-02T19:19:23.634Z,101791.38
2023-03-02T19:21:50.196Z,101790.84
2023-03-02T19:24:16.586Z,101791.09
2023-03-02T19:26:42.934Z,101797.56
2023-03-02T19:29:09.284Z,101797.78
2023-03-02T19:31:38.162Z,101799.44
2023-03-02T19:34:05.383Z,101803.75
2023-03-02T19:36:31.787Z,101811.84
2023-03-02T19:38:58.173Z,101810.50
2023-03-02T19:41:24.548Z,101816.13
2023-03-02T19:43:51.486Z,101806.91
2023-03-02T19:46:18.056Z,101812.22
2023-03-02T19:48:44.512Z,101821.81
2023-03-02T19:51:12.044Z,101824.22
2023-03-02T19:53:39.033Z,101821.34
2023-03-02T19:56:08.070Z,101831.75
2023-03-02T19:58:37.411Z,101838.78
2023-03-02T20:01:04.054Z,101830.69
2023-03-02T20:03:30.683Z,101830.81
2023-03-02T20:05:58.822Z,101824.13
2023-03-02T20:08:25.384Z,101827.38
2023-03-02T20:10:51.826Z,101834.00
2023-03-02T20:13:18.215Z,101824.91
2023-03-02T20:15:46.126Z,101827.91
2023-03-02T20:18:14.670Z,101829.06
2023-03-02T20:20:42.088Z,101835.03
2023-03-02T20:23:08.721Z,101826.09
2023-03-02T20:25:36.365Z,101834.44
2023-03-02T20:28:05.729Z,101826.72
2023-03-02T20:30:37.317Z,101826.19
2023-03-02T20:33:04.781Z,101828.72
2023-03-02T20:35:32.645Z,101827.97
2023-03-02T20:38:00.608Z,101826.25
2023-03-02T20:40:27.920Z,101826.09
2023-03-02T20:42:54.264Z,101824.31
2023-03-02T20:45:20.747Z,101819.31
2023-03-02T20:47:47.859Z,101826.84
2023-03-02T20:50:16.044Z,101823.59
2023-03-02T20:52:44.597Z,101819.84
2023-03-02T20:55:11.679Z,101826.03
2023-03-02T20:57:38.102Z,101824.50
2023-03-02T21:00:06.891Z,101828.59
2023-03-02T21:02:33.352Z,101833.06
2023-03-02T21:05:00.234Z,101825.63
2023-03-02T21:07:26.854Z,101825.63
2023-03-02T21:09:53.201Z,101835.13
2023-03-02T21:12:19.871Z,101841.47
2023-03-02T21:14:46.236Z,101832.25
2023-03-02T21:17:12.621Z,101826.81
2023-03-02T21:19:39.156Z,101828.97
2023-03-02T21:22:05.649Z,101828.63
2023-03-02T21:24:31.974Z,101824.31
2023-03-02T21:27:00.648Z,101818.84
2023-03-02T21:29:27.102Z,101817.53
2023-03-02T21:31:53.590Z,101815.13
2023-03-02T21:34:20.370Z,101808.34
2023-03-02T21:36:46.714Z,101820.59
2023-03-02T21:39:13.526Z,101820.94
2023-03-02T21:41:41.272Z,101819.91
2023-03-02T21:44:07.742Z,101826.69
2023-03-02T21:46:36.994Z,101811.75
2023-03-02T21:49:03.857Z,101815.91
2023-03-02T21:51:30.260Z,101813.47
2023-03-02T21:53:56.804Z,101803.94
2023-03-02T21:56:23.978Z,101803.09
2023-03-02T21:58:51.045Z,101796.38
2023-03-02T22:01:17.426Z,101790.53
2023-03-02T22:03:44.795Z,101788.25
2023-03-02T22:06:18.688Z,101792.66
2023-03-02T22:08:45.047Z,101788.75
2023-03-02T22:11:14.619Z,101786.91
2023-03-02T22:13:42.385Z,101785.03
2023-03-02T22:16:19.343Z,101777.16
2023-03-02T22:18:47.049Z,101785.78
2023-03-02T22:21:22.519Z,101779.72
2023-03-02T22:23:48.882Z,101786.22
2023-03-02T22:26:16.271Z,101788.56
2023-03-02T22:28:43.071Z,101792.13
2023-03-02T22:31:17.601Z,101796.06
2023-03-02T22:33:43.975Z,101799.44
2023-03-02T22:36:16.025Z,101792.38
2023-03-02T22:38:42.350Z,101786.41
2023-03-02T22:41:13.079Z,101782.31
2023-03-02T22:43:39.441Z,101789.66
2023-03-02T22:46:10.479Z,101774.13
2023-03-02T22:48:37.643Z,101777.53
2023-03-02T22:51:23.574Z,101775.59
2023-03-02T22:53:57.349Z,101766.13
2023-03-02T22:56:31.073Z,101761.19
2023-03-02T22:59:01.110Z,101749.94
2023-03-02T23:01:29.422Z,101754.78
2023-03-02T23:04:07.913Z,101766.09
2023-03-02T23:06:38.373Z,101760.72
2023-03-02T23:09:05.968Z,101764.84
2023-03-02T23:11:35.832Z,101753.94
2023-03-02T23:14:02.551Z,101752.34
2023-03-02T23:16:32.863Z,101759.31
2023-03-02T23:18:59.325Z,101759.81
2023-03-02T23:21:52.060Z,101768.03
2023-03-02T23:24:21.986Z,101764.75
2023-03-02T23:26:50.348Z,101771.47
2023-03-02T23:29:17.079Z,101764.16
2023-03-02T23:31:43.834Z,101765.16
2023-03-02T23:34:11.049Z,101766.63
2023-03-02T23:36:37.524Z,101770.44
2023-03-02T23:39:07.619Z,101770.13
2023-03-02T23:41:34.479Z,101769.94
2023-03-02T23:44:00.845Z,101770.28
2023-03-02T23:46:27.172Z,101778.63
2023-03-02T23:48:55.883Z,101768.75
2023-03-02T23:51:23.230Z,101768.41
2023-03-02T23:53:49.537Z,101774.28
2023-03-02T23:56:15.845Z,101777.00
2023-03-02T23:58:42.335Z,101776.47
